Pagina principale
METAR-TAF:

METAR-TAF

Aeroporti :

Aeroporto di Comiso

Comiso, Italia

latitudine: 36-59-30N, longitudine: 14-36-25E, altezza: 190 m

Osservazione

Il bollettino è stato emesso 1 ora e 10 minuti fa, alle 17:50 UTC
Vento 3 kt da sud, variando fra sud-est e sud-ovest
Temperature 17°C
Umidità 72%
Pressione 1010 hPa
Visibilità 10 km o più
nessuna nube inferiore a 1500 m e nessun cumulonembo

METAR: LICB 191750Z 18003KT 140V220 CAVOK 17/12 Q1010

Ora: 21:00 (19:00 UTC)

Previsione

Il bollettino è stato emesso 2 ore e 0 minuti fa, alle 17:00 UTC
Previsione valida dal 19 alle 18 UTC al 20 alle 03 UTC
Vento 12 kt da ovest
Visibilità 10 km o più
Nubi sparse ad un'altezza di 3000 ft
Evoluzione graduale
dal 19 alle 19 UTC al 19 alle 21 UTC
Vento 5 kt da direzioni variabili

TAF: LICB 191700Z 1918/2003 27012KT 9999 SCT030 BECMG 1919/1921 VRB05KT

Osservazioni e previsioni meteorologiche di più di 4000 aeroporti (messaggi METAR e TAF).

Le stazioni disponibili sono rappresentate dai dischi gialli e rossi sulla carta.

Puntare il mouse per vedere il nome della stazione.

Clicca sopra per visualizzare le osservazioni e previsioni meteorologiche.

Per cambiare la mappa : fare clic sui pulsanti verdi con una croce nera per ingrandire, il pulsante verde con un trattino per diminuire, o sulla freccia verde per le mappe adiacenti.


METAR-TAF: